sensor_id;sensor_type;location;lat;lon;timestamp;P1;durP1;ratioP1;P2;durP2;ratioP2
22606;SDS011;11470;20.968;105.834;2023-09-19T00:01:30;21.17;;;13.60;;
22606;SDS011;11470;20.968;105.834;2023-09-19T00:07:10;21.30;;;13.98;;
22606;SDS011;11470;20.968;105.834;2023-09-19T00:12:33;27.77;;;17.85;;
22606;SDS011;11470;20.968;105.834;2023-09-19T00:17:38;20.55;;;12.93;;
22606;SDS011;11470;20.968;105.834;2023-09-19T00:23:00;18.90;;;12.10;;
22606;SDS011;11470;20.968;105.834;2023-09-19T00:28:12;29.23;;;18.40;;
22606;SDS011;11470;20.968;105.834;2023-09-19T00:33:35;25.23;;;17.70;;
22606;SDS011;11470;20.968;105.834;2023-09-19T00:38:43;32.85;;;26.30;;
22606;SDS011;11470;20.968;105.834;2023-09-19T00:49:30;38.92;;;27.20;;
22606;SDS011;11470;20.968;105.834;2023-09-19T00:54:53;34.63;;;25.25;;
22606;SDS011;11470;20.968;105.834;2023-09-19T01:00:16;22.70;;;16.80;;
22606;SDS011;11470;20.968;105.834;2023-09-19T01:05:57;25.00;;;21.33;;
22606;SDS011;11470;20.968;105.834;2023-09-19T01:11:25;18.65;;;15.27;;
22606;SDS011;11470;20.968;105.834;2023-09-19T01:16:53;21.27;;;17.48;;
22606;SDS011;11470;20.968;105.834;2023-09-19T01:22:32;16.70;;;12.83;;
22606;SDS011;11470;20.968;105.834;2023-09-19T01:33:59;27.65;;;18.38;;
22606;SDS011;11470;20.968;105.834;2023-09-19T01:39:09;14.70;;;13.10;;
22606;SDS011;11470;20.968;105.834;2023-09-19T01:49:42;17.10;;;13.15;;
22606;SDS011;11470;20.968;105.834;2023-09-19T02:00:22;15.43;;;12.27;;
22606;SDS011;11470;20.968;105.834;2023-09-19T02:05:52;19.50;;;13.75;;
22606;SDS011;11470;20.968;105.834;2023-09-19T02:10:57;21.85;;;12.50;;
22606;SDS011;11470;20.968;105.834;2023-09-19T02:33:21;14.25;;;10.45;;
22606;SDS011;11470;20.968;105.834;2023-09-19T02:44:09;13.02;;;7.68;;
22606;SDS011;11470;20.968;105.834;2023-09-19T02:49:48;20.88;;;13.57;;
22606;SDS011;11470;20.968;105.834;2023-09-19T02:54:54;13.95;;;11.43;;
22606;SDS011;11470;20.968;105.834;2023-09-19T03:00:25;17.30;;;13.70;;
22606;SDS011;11470;20.968;105.834;2023-09-19T03:11:14;16.95;;;12.90;;
22606;SDS011;11470;20.968;105.834;2023-09-19T03:16:38;14.85;;;11.40;;
22606;SDS011;11470;20.968;105.834;2023-09-19T03:21:43;20.00;;;13.52;;
22606;SDS011;11470;20.968;105.834;2023-09-19T03:26:49;16.95;;;13.40;;
22606;SDS011;11470;20.968;105.834;2023-09-19T03:31:55;15.88;;;12.55;;
22606;SDS011;11470;20.968;105.834;2023-09-19T03:37:16;16.05;;;11.65;;
22606;SDS011;11470;20.968;105.834;2023-09-19T03:42:40;17.75;;;11.07;;
22606;SDS011;11470;20.968;105.834;2023-09-19T03:47:47;15.73;;;11.25;;
22606;SDS011;11470;20.968;105.834;2023-09-19T03:58:51;12.90;;;8.55;;
22606;SDS011;11470;20.968;105.834;2023-09-19T04:15:56;11.45;;;6.88;;
22606;SDS011;11470;20.968;105.834;2023-09-19T04:26:42;8.93;;;6.88;;
22606;SDS011;11470;20.968;105.834;2023-09-19T04:32:03;9.80;;;7.47;;
22606;SDS011;11470;20.968;105.834;2023-09-19T04:42:55;10.52;;;8.25;;
22606;SDS011;11470;20.968;105.834;2023-09-19T04:48:18;9.85;;;7.03;;
22606;SDS011;11470;20.968;105.834;2023-09-19T04:53:41;10.30;;;7.15;;
22606;SDS011;11470;20.968;105.834;2023-09-19T04:59:22;9.07;;;8.18;;
22606;SDS011;11470;20.968;105.834;2023-09-19T05:04:26;13.03;;;8.27;;
22606;SDS011;11470;20.968;105.834;2023-09-19T05:10:06;9.23;;;7.05;;
22606;SDS011;11470;20.968;105.834;2023-09-19T05:15:28;10.45;;;7.60;;
22606;SDS011;11470;20.968;105.834;2023-09-19T05:20:34;10.13;;;7.70;;
22606;SDS011;11470;20.968;105.834;2023-09-19T05:31:05;10.82;;;8.02;;
22606;SDS011;11470;20.968;105.834;2023-09-19T05:36:45;7.07;;;6.30;;
22606;SDS011;11470;20.968;105.834;2023-09-19T05:41:52;10.98;;;6.75;;
22606;SDS011;11470;20.968;105.834;2023-09-19T05:47:31;10.27;;;6.20;;
22606;SDS011;11470;20.968;105.834;2023-09-19T05:58:00;9.90;;;7.47;;
22606;SDS011;11470;20.968;105.834;2023-09-19T06:03:07;10.80;;;6.55;;
22606;SDS011;11470;20.968;105.834;2023-09-19T06:08:12;9.75;;;6.57;;
22606;SDS011;11470;20.968;105.834;2023-09-19T06:13:53;9.95;;;5.57;;
22606;SDS011;11470;20.968;105.834;2023-09-19T06:19:15;9.68;;;7.10;;
22606;SDS011;11470;20.968;105.834;2023-09-19T06:24:21;8.38;;;7.15;;
22606;SDS011;11470;20.968;105.834;2023-09-19T06:29:43;11.38;;;7.40;;
22606;SDS011;11470;20.968;105.834;2023-09-19T06:34:51;10.50;;;8.43;;
22606;SDS011;11470;20.968;105.834;2023-09-19T06:40:33;8.27;;;7.25;;
22606;SDS011;11470;20.968;105.834;2023-09-19T06:45:56;9.18;;;6.07;;
22606;SDS011;11470;20.968;105.834;2023-09-19T06:51:21;7.55;;;5.30;;
22606;SDS011;11470;20.968;105.834;2023-09-19T06:56:46;8.68;;;7.53;;
22606;SDS011;11470;20.968;105.834;2023-09-19T07:23:59;10.13;;;5.68;;
22606;SDS011;11470;20.968;105.834;2023-09-19T07:29:06;8.55;;;6.18;;
22606;SDS011;11470;20.968;105.834;2023-09-19T07:34:29;9.73;;;5.20;;
22606;SDS011;11470;20.968;105.834;2023-09-19T07:51:16;6.68;;;4.95;;
22606;SDS011;11470;20.968;105.834;2023-09-19T07:56:39;7.40;;;5.18;;
22606;SDS011;11470;20.968;105.834;2023-09-19T08:02:03;8.27;;;5.63;;
22606;SDS011;11470;20.968;105.834;2023-09-19T08:07:44;10.25;;;6.25;;
22606;SDS011;11470;20.968;105.834;2023-09-19T08:12:53;8.43;;;6.15;;
22606;SDS011;11470;20.968;105.834;2023-09-19T08:18:01;12.32;;;8.15;;
22606;SDS011;11470;20.968;105.834;2023-09-19T08:29:07;11.60;;;6.90;;
22606;SDS011;11470;20.968;105.834;2023-09-19T08:34:21;8.25;;;7.30;;
22606;SDS011;11470;20.968;105.834;2023-09-19T08:39:48;10.05;;;7.35;;
22606;SDS011;11470;20.968;105.834;2023-09-19T08:45:11;18.23;;;8.27;;
22606;SDS011;11470;20.968;105.834;2023-09-19T08:50:37;11.10;;;7.88;;
22606;SDS011;11470;20.968;105.834;2023-09-19T08:56:29;14.13;;;8.68;;
22606;SDS011;11470;20.968;105.834;2023-09-19T09:01:36;12.48;;;7.53;;
22606;SDS011;11470;20.968;105.834;2023-09-19T09:06:44;8.63;;;7.70;;
22606;SDS011;11470;20.968;105.834;2023-09-19T09:12:09;11.25;;;8.13;;
22606;SDS011;11470;20.968;105.834;2023-09-19T09:17:37;9.65;;;7.63;;
22606;SDS011;11470;20.968;105.834;2023-09-19T09:22:58;15.10;;;8.02;;
22606;SDS011;11470;20.968;105.834;2023-09-19T09:28:26;14.65;;;8.55;;
22606;SDS011;11470;20.968;105.834;2023-09-19T09:33:32;10.07;;;7.72;;
22606;SDS011;11470;20.968;105.834;2023-09-19T09:38:46;10.93;;;7.93;;
22606;SDS011;11470;20.968;105.834;2023-09-19T09:44:15;10.63;;;8.45;;
22606;SDS011;11470;20.968;105.834;2023-09-19T09:49:24;11.70;;;8.00;;
22606;SDS011;11470;20.968;105.834;2023-09-19T10:00:52;10.63;;;7.68;;
22606;SDS011;11470;20.968;105.834;2023-09-19T10:06:24;10.02;;;6.63;;
22606;SDS011;11470;20.968;105.834;2023-09-19T10:23:50;12.18;;;6.40;;
22606;SDS011;11470;20.968;105.834;2023-09-19T10:28:59;8.70;;;5.60;;
22606;SDS011;11470;20.968;105.834;2023-09-19T10:34:41;9.13;;;7.20;;
22606;SDS011;11470;20.968;105.834;2023-09-19T10:39:46;10.48;;;6.60;;
22606;SDS011;11470;20.968;105.834;2023-09-19T10:45:10;10.20;;;6.70;;
22606;SDS011;11470;20.968;105.834;2023-09-19T10:50:21;9.82;;;4.85;;
22606;SDS011;11470;20.968;105.834;2023-09-19T10:55:27;9.95;;;5.68;;
22606;SDS011;11470;20.968;105.834;2023-09-19T11:06:06;15.55;;;8.65;;
22606;SDS011;11470;20.968;105.834;2023-09-19T11:11:59;17.58;;;8.38;;
22606;SDS011;11470;20.968;105.834;2023-09-19T11:49:31;11.23;;;7.10;;
22606;SDS011;11470;20.968;105.834;2023-09-19T11:54:41;12.00;;;6.88;;
22606;SDS011;11470;20.968;105.834;2023-09-19T12:00:22;14.68;;;8.52;;
22606;SDS011;11470;20.968;105.834;2023-09-19T12:05:45;12.32;;;7.22;;
22606;SDS011;11470;20.968;105.834;2023-09-19T12:11:11;12.77;;;7.28;;
22606;SDS011;11470;20.968;105.834;2023-09-19T12:22:22;13.43;;;7.85;;
22606;SDS011;11470;20.968;105.834;2023-09-19T12:33:19;14.77;;;8.75;;
22606;SDS011;11470;20.968;105.834;2023-09-19T12:38:44;17.10;;;9.00;;
22606;SDS011;11470;20.968;105.834;2023-09-19T12:55:34;14.70;;;8.20;;
22606;SDS011;11470;20.968;105.834;2023-09-19T13:00:42;12.73;;;7.40;;
22606;SDS011;11470;20.968;105.834;2023-09-19T13:05:55;13.27;;;7.05;;
22606;SDS011;11470;20.968;105.834;2023-09-19T13:11:07;14.43;;;7.53;;
22606;SDS011;11470;20.968;105.834;2023-09-19T13:16:16;10.98;;;6.43;;
22606;SDS011;11470;20.968;105.834;2023-09-19T13:21:32;10.90;;;6.70;;
22606;SDS011;11470;20.968;105.834;2023-09-19T13:32:35;15.70;;;7.30;;
22606;SDS011;11470;20.968;105.834;2023-09-19T13:37:41;17.92;;;6.97;;
22606;SDS011;11470;20.968;105.834;2023-09-19T13:42:52;11.63;;;5.63;;
22606;SDS011;11470;20.968;105.834;2023-09-19T13:48:24;7.45;;;5.30;;
22606;SDS011;11470;20.968;105.834;2023-09-19T13:53:39;9.88;;;5.30;;
22606;SDS011;11470;20.968;105.834;2023-09-19T13:58:43;11.63;;;5.07;;
22606;SDS011;11470;20.968;105.834;2023-09-19T14:03:49;10.53;;;4.77;;
22606;SDS011;11470;20.968;105.834;2023-09-19T14:08:54;9.73;;;4.50;;
22606;SDS011;11470;20.968;105.834;2023-09-19T14:13:59;8.73;;;5.22;;
22606;SDS011;11470;20.968;105.834;2023-09-19T14:19:04;11.48;;;4.70;;
22606;SDS011;11470;20.968;105.834;2023-09-19T14:24:10;12.43;;;6.20;;
22606;SDS011;11470;20.968;105.834;2023-09-19T14:29:40;15.65;;;6.60;;
22606;SDS011;11470;20.968;105.834;2023-09-19T14:34:44;13.23;;;6.10;;
22606;SDS011;11470;20.968;105.834;2023-09-19T14:39:49;20.60;;;8.33;;
22606;SDS011;11470;20.968;105.834;2023-09-19T14:44:54;13.27;;;7.83;;
22606;SDS011;11470;20.968;105.834;2023-09-19T14:50:00;15.40;;;8.25;;
22606;SDS011;11470;20.968;105.834;2023-09-19T14:55:10;13.07;;;7.47;;
22606;SDS011;11470;20.968;105.834;2023-09-19T15:00:17;25.10;;;14.10;;
22606;SDS011;11470;20.968;105.834;2023-09-19T15:05:24;23.90;;;11.77;;
22606;SDS011;11470;20.968;105.834;2023-09-19T15:10:30;17.40;;;10.07;;
22606;SDS011;11470;20.968;105.834;2023-09-19T15:15:35;21.98;;;12.23;;
22606;SDS011;11470;20.968;105.834;2023-09-19T15:20:43;21.97;;;10.77;;
22606;SDS011;11470;20.968;105.834;2023-09-19T15:25:49;27.40;;;12.65;;
22606;SDS011;11470;20.968;105.834;2023-09-19T15:30:57;24.38;;;13.43;;
22606;SDS011;11470;20.968;105.834;2023-09-19T15:36:04;21.00;;;11.23;;
22606;SDS011;11470;20.968;105.834;2023-09-19T15:41:11;20.33;;;9.45;;
22606;SDS011;11470;20.968;105.834;2023-09-19T15:46:17;21.95;;;11.52;;
22606;SDS011;11470;20.968;105.834;2023-09-19T15:51:26;21.60;;;10.55;;
22606;SDS011;11470;20.968;105.834;2023-09-19T15:56:31;21.88;;;11.25;;
22606;SDS011;11470;20.968;105.834;2023-09-19T16:01:44;26.88;;;12.52;;
22606;SDS011;11470;20.968;105.834;2023-09-19T16:06:49;32.50;;;12.18;;
22606;SDS011;11470;20.968;105.834;2023-09-19T16:11:56;25.13;;;12.05;;
22606;SDS011;11470;20.968;105.834;2023-09-19T16:17:05;27.25;;;13.15;;
22606;SDS011;11470;20.968;105.834;2023-09-19T16:22:14;25.42;;;12.13;;
22606;SDS011;11470;20.968;105.834;2023-09-19T16:27:19;19.70;;;9.70;;
22606;SDS011;11470;20.968;105.834;2023-09-19T16:37:28;16.67;;;7.97;;
22606;SDS011;11470;20.968;105.834;2023-09-19T16:42:41;14.77;;;7.10;;
22606;SDS011;11470;20.968;105.834;2023-09-19T16:47:46;14.43;;;8.73;;
22606;SDS011;11470;20.968;105.834;2023-09-19T16:52:51;14.10;;;7.13;;
22606;SDS011;11470;20.968;105.834;2023-09-19T16:57:58;12.20;;;6.32;;
22606;SDS011;11470;20.968;105.834;2023-09-19T17:03:03;13.50;;;7.03;;
22606;SDS011;11470;20.968;105.834;2023-09-19T17:08:09;14.05;;;7.78;;
22606;SDS011;11470;20.968;105.834;2023-09-19T17:13:14;12.80;;;7.10;;
22606;SDS011;11470;20.968;105.834;2023-09-19T17:18:18;14.88;;;8.35;;
22606;SDS011;11470;20.968;105.834;2023-09-19T17:23:23;19.00;;;7.97;;
22606;SDS011;11470;20.968;105.834;2023-09-19T17:28:28;14.37;;;6.23;;
22606;SDS011;11470;20.968;105.834;2023-09-19T17:33:34;16.33;;;8.18;;
22606;SDS011;11470;20.968;105.834;2023-09-19T17:44:47;14.27;;;7.10;;
22606;SDS011;11470;20.968;105.834;2023-09-19T17:49:52;12.23;;;7.47;;
22606;SDS011;11470;20.968;105.834;2023-09-19T17:54:57;11.10;;;7.13;;
22606;SDS011;11470;20.968;105.834;2023-09-19T18:00:02;11.10;;;7.27;;
22606;SDS011;11470;20.968;105.834;2023-09-19T18:05:12;13.73;;;8.75;;
22606;SDS011;11470;20.968;105.834;2023-09-19T18:10:22;11.95;;;7.05;;
22606;SDS011;11470;20.968;105.834;2023-09-19T18:22:14;12.07;;;8.07;;
22606;SDS011;11470;20.968;105.834;2023-09-19T18:27:21;15.77;;;7.93;;
22606;SDS011;11470;20.968;105.834;2023-09-19T18:32:35;11.82;;;7.00;;
22606;SDS011;11470;20.968;105.834;2023-09-19T18:38:23;9.57;;;6.53;;
22606;SDS011;11470;20.968;105.834;2023-09-19T18:48:37;13.50;;;8.90;;
22606;SDS011;11470;20.968;105.834;2023-09-19T18:53:45;13.43;;;8.65;;
22606;SDS011;11470;20.968;105.834;2023-09-19T18:59:07;16.65;;;9.88;;
22606;SDS011;11470;20.968;105.834;2023-09-19T19:04:13;11.00;;;8.80;;
22606;SDS011;11470;20.968;105.834;2023-09-19T19:09:18;17.83;;;12.00;;
22606;SDS011;11470;20.968;105.834;2023-09-19T19:14:24;16.67;;;11.27;;
22606;SDS011;11470;20.968;105.834;2023-09-19T19:19:29;20.60;;;13.88;;
22606;SDS011;11470;20.968;105.834;2023-09-19T19:29:46;20.77;;;14.90;;
22606;SDS011;11470;20.968;105.834;2023-09-19T19:35:15;23.70;;;14.90;;
22606;SDS011;11470;20.968;105.834;2023-09-19T19:40:21;25.15;;;17.55;;
22606;SDS011;11470;20.968;105.834;2023-09-19T19:45:26;29.57;;;18.40;;
22606;SDS011;11470;20.968;105.834;2023-09-19T19:50:31;20.17;;;13.70;;
22606;SDS011;11470;20.968;105.834;2023-09-19T19:55:42;22.80;;;14.30;;
22606;SDS011;11470;20.968;105.834;2023-09-19T20:01:00;24.25;;;17.92;;
22606;SDS011;11470;20.968;105.834;2023-09-19T20:06:07;27.23;;;17.90;;
22606;SDS011;11470;20.968;105.834;2023-09-19T20:11:12;23.38;;;15.75;;
22606;SDS011;11470;20.968;105.834;2023-09-19T20:16:17;27.40;;;20.73;;
22606;SDS011;11470;20.968;105.834;2023-09-19T20:21:22;26.53;;;18.53;;
22606;SDS011;11470;20.968;105.834;2023-09-19T20:26:27;29.63;;;18.33;;
22606;SDS011;11470;20.968;105.834;2023-09-19T20:31:32;28.33;;;19.13;;
22606;SDS011;11470;20.968;105.834;2023-09-19T20:36:38;25.08;;;18.02;;
22606;SDS011;11470;20.968;105.834;2023-09-19T20:41:43;26.80;;;19.50;;
22606;SDS011;11470;20.968;105.834;2023-09-19T20:46:52;24.17;;;17.52;;
22606;SDS011;11470;20.968;105.834;2023-09-19T20:52:16;23.63;;;17.48;;
22606;SDS011;11470;20.968;105.834;2023-09-19T20:57:21;36.58;;;22.83;;
22606;SDS011;11470;20.968;105.834;2023-09-19T21:02:32;27.48;;;20.20;;
22606;SDS011;11470;20.968;105.834;2023-09-19T21:07:37;21.83;;;17.42;;
22606;SDS011;11470;20.968;105.834;2023-09-19T21:12:42;24.67;;;17.17;;
22606;SDS011;11470;20.968;105.834;2023-09-19T21:17:59;26.58;;;17.42;;
22606;SDS011;11470;20.968;105.834;2023-09-19T21:23:13;24.27;;;18.35;;
22606;SDS011;11470;20.968;105.834;2023-09-19T21:28:23;21.87;;;15.40;;
22606;SDS011;11470;20.968;105.834;2023-09-19T21:33:39;18.90;;;15.23;;
22606;SDS011;11470;20.968;105.834;2023-09-19T21:44:42;21.33;;;14.40;;
22606;SDS011;11470;20.968;105.834;2023-09-19T21:49:53;22.50;;;14.63;;
22606;SDS011;11470;20.968;105.834;2023-09-19T21:54:58;22.30;;;14.00;;
22606;SDS011;11470;20.968;105.834;2023-09-19T22:00:03;22.63;;;15.13;;
22606;SDS011;11470;20.968;105.834;2023-09-19T22:10:50;20.75;;;14.45;;
22606;SDS011;11470;20.968;105.834;2023-09-19T22:15:57;19.38;;;13.45;;
22606;SDS011;11470;20.968;105.834;2023-09-19T22:21:04;25.13;;;14.23;;
22606;SDS011;11470;20.968;105.834;2023-09-19T22:26:16;22.55;;;16.23;;
22606;SDS011;11470;20.968;105.834;2023-09-19T22:31:22;25.33;;;15.32;;
22606;SDS011;11470;20.968;105.834;2023-09-19T22:36:31;23.48;;;15.68;;
22606;SDS011;11470;20.968;105.834;2023-09-19T22:42:36;22.25;;;13.57;;
22606;SDS011;11470;20.968;105.834;2023-09-19T22:47:41;27.67;;;21.47;;
22606;SDS011;11470;20.968;105.834;2023-09-19T22:52:47;23.23;;;18.58;;
22606;SDS011;11470;20.968;105.834;2023-09-19T22:57:54;34.92;;;26.80;;
22606;SDS011;11470;20.968;105.834;2023-09-19T23:02:59;25.00;;;21.50;;
22606;SDS011;11470;20.968;105.834;2023-09-19T23:08:09;29.02;;;22.33;;
22606;SDS011;11470;20.968;105.834;2023-09-19T23:13:14;26.60;;;19.58;;
22606;SDS011;11470;20.968;105.834;2023-09-19T23:18:31;28.13;;;21.48;;
22606;SDS011;11470;20.968;105.834;2023-09-19T23:23:39;28.15;;;21.13;;
22606;SDS011;11470;20.968;105.834;2023-09-19T23:29:19;24.35;;;19.67;;
22606;SDS011;11470;20.968;105.834;2023-09-19T23:34:54;38.78;;;29.80;;
22606;SDS011;11470;20.968;105.834;2023-09-19T23:40:00;22.83;;;17.35;;
22606;SDS011;11470;20.968;105.834;2023-09-19T23:45:07;24.13;;;17.17;;
22606;SDS011;11470;20.968;105.834;2023-09-19T23:50:14;21.73;;;16.05;;
